Terminal Aerodrome Forecast
Issued by NWS Sterling, VA

Home | Current Version | Previous Version | Text Only | Print | Product List | Glossary On
Versions: 1 2 3 4 5 6 7 8 9 10 11 12 13 14 15 16 17 18 19 20 21 22 23 24
768
FTUS41 KLWX 222320
TAFIAD
TAF
KIAD 222320Z 2300/2406 18005KT P6SM BKN130
     FM230600 19004KT 4SM BR OVC015
     FM231100 VRB03KT 2SM BR BKN015
     FM231300 20004KT 4SM BR BKN015
     FM231400 20004KT P6SM BKN060
     FM231500 20005KT P6SM SCT060
     FM232100 20008KT P6SM BKN050
     FM240500 19005KT P6SM SCT050=

USA.gov is the U.S. government's official web portal to all federal, state and local government web resources and services.